Time;durP1;ratioP1;P1;durP2;ratioP2;P2;SDS_P1;SDS_P2;PMS_P1;PMS_P2;Temp;Humidity;BMP_temperature;BMP_pressure;BME280_temperature;BME280_humidity;BME280_pressure;Samples;Min_cycle;Max_cycle;Signal;HPM_P1;HPM_P2
2022/12/01 00:01:24;;;;;;;38.20;19.57;;;;;;;;;;5016684;28;20217;-77
2022/12/01 00:04:28;;;;;;;36.60;20.87;;;;;;;;;;4993393;28;20181;-77
2022/12/01 00:07:32;;;;;;;37.23;20.07;;;;;;;;;;5004619;28;20213;-77
2022/12/01 00:10:36;;;;;;;35.53;20.37;;;;;;;;;;5004337;28;20186;-77
2022/12/01 00:13:40;;;;;;;36.43;20.13;;;;;;;;;;5004558;28;20627;-77
2022/12/01 00:16:44;;;;;;;35.43;19.77;;;;;;;;;;5004226;28;20621;-77
2022/12/01 00:19:48;;;;;;;36.17;19.80;;;;;;;;;;4992925;28;20178;-77
2022/12/01 00:23:01;;;;;;;34.50;20.47;;;;;;;;;;5004314;28;20189;-77
2022/12/01 00:26:05;;;;;;;36.50;19.73;;;;;;;;;;4975791;28;20223;-88
2022/12/01 00:29:10;;;;;;;33.77;19.53;;;;;;;;;;4977267;28;20178;-88
2022/12/01 00:32:14;;;;;;;33.93;19.13;;;;;;;;;;4988393;28;20179;-88
2022/12/01 00:35:18;;;;;;;33.10;18.67;;;;;;;;;;4957207;28;20199;-88
2022/12/01 00:38:22;;;;;;;34.57;20.23;;;;;;;;;;4957648;28;20198;-89
2022/12/01 00:41:26;;;;;;;31.93;18.63;;;;;;;;;;4985695;28;20182;-88
2022/12/01 00:44:30;;;;;;;33.57;18.93;;;;;;;;;;4951562;28;20222;-88
2022/12/01 00:47:35;;;;;;;33.37;19.30;;;;;;;;;;4963607;28;20548;-88
2022/12/01 00:50:39;;;;;;;34.07;18.80;;;;;;;;;;4951808;28;20186;-88
2022/12/01 00:53:44;;;;;;;34.33;19.13;;;;;;;;;;4984985;28;20222;-89
2022/12/01 00:56:49;;;;;;;33.83;18.83;;;;;;;;;;4973242;28;20183;-89
2022/12/01 00:59:53;;;;;;;29.87;17.87;;;;;;;;;;4961188;28;20179;-89
2022/12/01 01:02:58;;;;;;;35.97;19.63;;;;;;;;;;4949137;28;20183;-89
2022/12/01 01:06:09;;;;;;;30.57;18.17;;;;;;;;;;4959239;28;20194;-89
2022/12/01 01:09:14;;;;;;;34.73;20.37;;;;;;;;;;4947782;28;20175;-89
2022/12/01 01:12:19;;;;;;;32.77;18.70;;;;;;;;;;4946896;28;20519;-89
2022/12/01 01:15:23;;;;;;;35.57;18.77;;;;;;;;;;4957786;28;20614;-89
2022/12/01 01:18:27;;;;;;;31.87;19.77;;;;;;;;;;4956846;28;20178;-88
2022/12/01 01:21:31;;;;;;;32.63;19.77;;;;;;;;;;4956298;28;20183;-89
2022/12/01 01:24:36;;;;;;;34.67;20.03;;;;;;;;;;4955488;28;20222;-89
2022/12/01 01:27:41;;;;;;;37.43;19.97;;;;;;;;;;4966417;28;20380;-89
2022/12/01 01:30:45;;;;;;;35.67;19.73;;;;;;;;;;4955407;28;20179;-89
2022/12/01 01:33:50;;;;;;;30.73;18.57;;;;;;;;;;4944295;28;20218;-89
2022/12/01 01:36:55;;;;;;;33.20;19.37;;;;;;;;;;4965806;28;20550;-89
2022/12/01 01:39:59;;;;;;;36.97;19.97;;;;;;;;;;4965710;28;20178;-89
2022/12/01 01:43:13;;;;;;;37.33;19.37;;;;;;;;;;4965550;28;20202;-89
2022/12/01 01:46:18;;;;;;;35.17;18.93;;;;;;;;;;4943615;28;20182;-89
2022/12/01 01:49:23;;;;;;;34.60;18.67;;;;;;;;;;4943062;28;20194;-89
2022/12/01 01:52:27;;;;;;;37.17;18.37;;;;;;;;;;4965284;28;20179;-89
2022/12/01 01:55:33;;;;;;;31.40;18.40;;;;;;;;;;4953917;28;20186;-89
2022/12/01 01:58:38;;;;;;;37.63;20.40;;;;;;;;;;4953584;28;20175;-88
2022/12/01 02:01:47;;;;;;;33.93;19.50;;;;;;;;;;4941927;28;20183;-89
2022/12/01 02:04:59;;;;;;;30.53;17.30;;;;;;;;;;4964627;28;20586;-89
2022/12/01 02:08:11;;;;;;;35.53;18.77;;;;;;;;;;4942735;28;20215;-89
2022/12/01 02:11:47;;;;;;;34.73;18.77;;;;;;;;;;4953672;28;20195;-89
2022/12/01 02:14:58;;;;;;;32.50;17.57;;;;;;;;;;4943201;28;20214;-89
2022/12/01 02:18:21;;;;;;;33.73;18.00;;;;;;;;;;4943164;28;20175;-89
2022/12/01 02:21:40;;;;;;;33.90;18.53;;;;;;;;;;4954004;28;20183;-89
2022/12/01 02:25:01;;;;;;;31.37;17.30;;;;;;;;;;4942622;28;20231;-89
2022/12/01 02:28:25;;;;;;;32.10;18.10;;;;;;;;;;4953770;28;20210;-89
2022/12/01 02:31:38;;;;;;;29.20;17.17;;;;;;;;;;4953865;28;20183;-89
2022/12/01 02:34:49;;;;;;;35.17;18.93;;;;;;;;;;4952703;28;20570;-89
2022/12/01 02:38:17;;;;;;;33.17;18.57;;;;;;;;;;4953277;28;20186;-89
2022/12/01 02:41:47;;;;;;;34.77;18.43;;;;;;;;;;4963971;28;20182;-89
2022/12/01 02:44:51;;;;;;;30.67;18.10;;;;;;;;;;4953386;28;20556;-88
2022/12/01 02:48:00;;;;;;;29.60;17.93;;;;;;;;;;4942269;28;20689;-88
2022/12/01 02:51:22;;;;;;;32.33;18.20;;;;;;;;;;4953234;28;20175;-89
2022/12/01 02:54:30;;;;;;;35.33;18.67;;;;;;;;;;4963827;28;20218;-89
2022/12/01 02:57:34;;;;;;;33.67;18.17;;;;;;;;;;4952810;28;20547;-89
2022/12/01 03:00:39;;;;;;;31.37;18.00;;;;;;;;;;4953182;28;20183;-90
2022/12/01 03:04:09;;;;;;;32.00;18.27;;;;;;;;;;4963820;28;20558;-89
2022/12/01 03:07:32;;;;;;;35.47;17.67;;;;;;;;;;4961375;28;20673;-89
2022/12/01 03:10:51;;;;;;;32.33;17.47;;;;;;;;;;4942297;28;20611;-89
2022/12/01 03:14:13;;;;;;;31.47;17.93;;;;;;;;;;4966221;28;20223;-88
2022/12/01 03:17:27;;;;;;;32.43;18.33;;;;;;;;;;4967381;28;20187;-89
2022/12/01 03:20:54;;;;;;;31.23;17.43;;;;;;;;;;4945500;28;20191;-89
2022/12/01 03:24:04;;;;;;;30.07;17.13;;;;;;;;;;4956326;28;20233;-89
2022/12/01 03:27:12;;;;;;;30.87;17.23;;;;;;;;;;4945235;28;20626;-89
2022/12/01 03:30:16;;;;;;;33.17;16.90;;;;;;;;;;4966890;28;20230;-89
2022/12/01 03:33:26;;;;;;;30.00;18.10;;;;;;;;;;4956073;28;20222;-89
2022/12/01 03:36:40;;;;;;;30.57;17.93;;;;;;;;;;4967281;28;20179;-89
2022/12/01 03:39:47;;;;;;;30.43;17.37;;;;;;;;;;4956071;28;20183;-89
2022/12/01 03:42:59;;;;;;;33.73;18.00;;;;;;;;;;4956380;28;20183;-89
2022/12/01 03:46:17;;;;;;;29.90;17.07;;;;;;;;;;4944800;28;20191;-89
2022/12/01 03:49:24;;;;;;;28.23;16.87;;;;;;;;;;4966955;28;20218;-88
2022/12/01 03:52:45;;;;;;;31.47;18.03;;;;;;;;;;4967060;28;20187;-89
2022/12/01 03:56:00;;;;;;;30.30;17.73;;;;;;;;;;4966669;28;20198;-89
2022/12/01 03:59:07;;;;;;;29.37;17.40;;;;;;;;;;4944444;28;20179;-89
2022/12/01 04:02:12;;;;;;;28.90;17.37;;;;;;;;;;4955517;28;20199;-89
2022/12/01 04:05:16;;;;;;;31.33;17.23;;;;;;;;;;4956595;28;20599;-89
2022/12/01 04:08:20;;;;;;;30.53;17.70;;;;;;;;;;4956597;28;20661;-89
2022/12/01 04:14:47;;;;;;;31.50;16.87;;;;;;;;;;4956167;28;20223;-88
2022/12/01 04:17:52;;;;;;;30.53;17.00;;;;;;;;;;4966996;28;20175;-88
2022/12/01 04:20:56;;;;;;;34.13;17.33;;;;;;;;;;4944974;28;20179;-88
2022/12/01 04:24:00;;;;;;;33.17;18.17;;;;;;;;;;4955398;28;20218;-89
2022/12/01 04:27:04;;;;;;;31.03;16.30;;;;;;;;;;4956324;28;20171;-88
2022/12/01 04:30:09;;;;;;;30.00;16.70;;;;;;;;;;4978490;28;20179;-89
2022/12/01 04:33:13;;;;;;;28.70;16.03;;;;;;;;;;4967230;28;20551;-88
2022/12/01 04:36:18;;;;;;;31.40;16.97;;;;;;;;;;4955965;28;20183;-89
2022/12/01 04:39:22;;;;;;;33.37;17.90;;;;;;;;;;4966391;28;20175;-89
2022/12/01 04:42:26;;;;;;;31.63;16.03;;;;;;;;;;4955048;28;20183;-89
2022/12/01 04:45:30;;;;;;;29.13;16.67;;;;;;;;;;4977626;28;20532;-89
2022/12/01 04:48:35;;;;;;;32.07;18.33;;;;;;;;;;4955238;28;20211;-89
2022/12/01 04:51:40;;;;;;;27.80;16.30;;;;;;;;;;4955055;28;20187;-88
2022/12/01 04:54:44;;;;;;;29.70;17.53;;;;;;;;;;4954756;28;20230;-89
2022/12/01 04:57:48;;;;;;;32.43;16.77;;;;;;;;;;4954762;28;20182;-89
2022/12/01 05:00:52;;;;;;;32.90;17.67;;;;;;;;;;4976902;28;20527;-89
2022/12/01 05:03:56;;;;;;;29.27;17.53;;;;;;;;;;4953856;28;20218;-89
2022/12/01 05:07:00;;;;;;;33.10;16.40;;;;;;;;;;4954448;28;20531;-89
2022/12/01 05:10:05;;;;;;;29.53;16.87;;;;;;;;;;4954637;28;20210;-89
2022/12/01 05:13:09;;;;;;;29.37;16.90;;;;;;;;;;4953919;28;20194;-89
2022/12/01 05:16:20;;;;;;;35.50;17.87;;;;;;;;;;4965434;28;20187;-88
2022/12/01 05:22:46;;;;;;;31.57;16.87;;;;;;;;;;4965541;28;20191;-89
2022/12/01 05:25:50;;;;;;;31.63;16.33;;;;;;;;;;4953853;28;20539;-89
2022/12/01 05:28:54;;;;;;;28.77;16.13;;;;;;;;;;4942880;28;20230;-89
2022/12/01 05:31:58;;;;;;;30.63;16.10;;;;;;;;;;4965084;28;20544;-89
2022/12/01 05:35:02;;;;;;;30.43;17.00;;;;;;;;;;4953914;28;20218;-89
2022/12/01 05:38:07;;;;;;;31.30;16.13;;;;;;;;;;4943425;28;20186;-89
2022/12/01 05:41:10;;;;;;;27.57;16.47;;;;;;;;;;4953765;28;20182;-88
2022/12/01 05:44:15;;;;;;;28.07;16.57;;;;;;;;;;4953955;28;20572;-89
2022/12/01 05:47:20;;;;;;;38.03;19.77;;;;;;;;;;4954007;28;20211;-88
2022/12/01 05:50:26;;;;;;;29.33;16.63;;;;;;;;;;4953618;28;20602;-88
2022/12/01 05:53:32;;;;;;;30.30;17.53;;;;;;;;;;4954273;28;20214;-86
2022/12/01 05:56:36;;;;;;;27.53;15.63;;;;;;;;;;4953746;28;20187;-85
2022/12/01 05:59:40;;;;;;;31.37;16.50;;;;;;;;;;4943318;28;20178;-86
2022/12/01 06:02:45;;;;;;;30.30;16.47;;;;;;;;;;4942967;28;20183;-86
2022/12/01 06:05:49;;;;;;;27.03;16.93;;;;;;;;;;4942470;28;20610;-86
2022/12/01 06:08:53;;;;;;;31.77;17.20;;;;;;;;;;4953258;28;20222;-86
2022/12/01 06:11:57;;;;;;;28.10;16.03;;;;;;;;;;4965188;28;20199;-86
2022/12/01 06:15:01;;;;;;;29.30;17.33;;;;;;;;;;4942323;28;20222;-85
2022/12/01 06:18:05;;;;;;;31.83;17.17;;;;;;;;;;4953464;28;20206;-86
2022/12/01 06:21:10;;;;;;;28.90;16.10;;;;;;;;;;4953121;28;20198;-86
2022/12/01 06:24:14;;;;;;;29.73;17.10;;;;;;;;;;4954235;28;20222;-84
2022/12/01 06:27:18;;;;;;;29.73;15.47;;;;;;;;;;4942352;28;20202;-85
2022/12/01 06:30:22;;;;;;;31.50;17.80;;;;;;;;;;4943285;28;20226;-85
2022/12/01 06:33:26;;;;;;;34.10;16.10;;;;;;;;;;4953314;28;20607;-86
2022/12/01 06:36:31;;;;;;;28.97;16.30;;;;;;;;;;4952966;28;20187;-85
2022/12/01 06:39:35;;;;;;;35.40;17.40;;;;;;;;;;4942445;28;20186;-85
2022/12/01 06:42:39;;;;;;;31.63;17.80;;;;;;;;;;4953142;28;20175;-86
2022/12/01 06:45:43;;;;;;;30.00;16.33;;;;;;;;;;4963707;28;20187;-86
2022/12/01 06:48:48;;;;;;;30.30;16.63;;;;;;;;;;4941684;28;20214;-86
2022/12/01 06:51:52;;;;;;;29.03;17.23;;;;;;;;;;4953177;28;20178;-86
2022/12/01 06:54:56;;;;;;;34.17;17.63;;;;;;;;;;4942531;28;20218;-86
2022/12/01 06:58:00;;;;;;;33.17;18.20;;;;;;;;;;4953847;28;20203;-86
2022/12/01 07:01:09;;;;;;;35.37;18.90;;;;;;;;;;4941799;28;20187;-86
2022/12/01 07:04:13;;;;;;;38.60;20.30;;;;;;;;;;4963306;28;20218;-85
2022/12/01 07:07:17;;;;;;;37.83;18.73;;;;;;;;;;4952224;28;20203;-86
2022/12/01 07:10:22;;;;;;;33.90;17.53;;;;;;;;;;4952382;28;20230;-86
2022/12/01 07:13:26;;;;;;;31.47;17.73;;;;;;;;;;4963680;28;20215;-86
2022/12/01 07:16:30;;;;;;;33.93;18.10;;;;;;;;;;4952557;28;20183;-86
2022/12/01 07:19:35;;;;;;;34.37;18.73;;;;;;;;;;4952834;28;20507;-86
2022/12/01 07:22:39;;;;;;;30.87;17.27;;;;;;;;;;4951856;28;20187;-86
2022/12/01 07:25:43;;;;;;;30.03;17.10;;;;;;;;;;4941527;28;20183;-85
2022/12/01 07:28:47;;;;;;;30.07;17.00;;;;;;;;;;4951790;28;20198;-86
2022/12/01 07:31:51;;;;;;;35.20;19.80;;;;;;;;;;4963315;28;20183;-85
2022/12/01 07:34:55;;;;;;;30.20;17.20;;;;;;;;;;4951876;28;20698;-86
2022/12/01 07:37:59;;;;;;;34.30;18.40;;;;;;;;;;4941539;28;20202;-85
2022/12/01 07:41:09;;;;;;;32.07;18.27;;;;;;;;;;4952027;28;20199;-85
2022/12/01 07:44:14;;;;;;;28.93;16.70;;;;;;;;;;4962776;28;20222;-86
2022/12/01 07:47:18;;;;;;;37.10;20.03;;;;;;;;;;4952495;28;20183;-85
2022/12/01 07:50:22;;;;;;;32.00;17.37;;;;;;;;;;4952131;28;20210;-85
2022/12/01 07:53:26;;;;;;;31.03;16.80;;;;;;;;;;4952056;28;20218;-86
2022/12/01 07:56:31;;;;;;;27.90;16.30;;;;;;;;;;4951760;28;20182;-86
2022/12/01 07:59:35;;;;;;;31.70;18.43;;;;;;;;;;4964591;28;20180;-86
2022/12/01 08:02:39;;;;;;;29.70;17.10;;;;;;;;;;4955569;28;20183;-86
2022/12/01 08:05:43;;;;;;;29.27;17.10;;;;;;;;;;4955167;28;20186;-86
2022/12/01 08:08:48;;;;;;;32.47;17.50;;;;;;;;;;4955498;28;20178;-86
2022/12/01 08:11:52;;;;;;;39.40;20.53;;;;;;;;;;4977563;28;20199;-86
2022/12/01 08:14:56;;;;;;;30.77;18.00;;;;;;;;;;4954603;28;20215;-86
2022/12/01 08:18:01;;;;;;;30.53;16.80;;;;;;;;;;4955203;28;20537;-86
2022/12/01 08:21:07;;;;;;;27.30;17.07;;;;;;;;;;4966480;28;20202;-85
2022/12/01 08:24:11;;;;;;;30.73;17.30;;;;;;;;;;4965867;28;20230;-86
2022/12/01 08:27:15;;;;;;;28.63;16.73;;;;;;;;;;4965900;28;20191;-85
2022/12/01 08:30:20;;;;;;;28.87;16.53;;;;;;;;;;4944013;28;20542;-86
2022/12/01 08:33:24;;;;;;;32.33;18.20;;;;;;;;;;4954768;28;20223;-86
2022/12/01 08:36:28;;;;;;;27.87;17.47;;;;;;;;;;4954635;28;20191;-86
2022/12/01 08:39:32;;;;;;;33.67;18.23;;;;;;;;;;4943769;28;20515;-86
2022/12/01 08:42:37;;;;;;;29.03;16.53;;;;;;;;;;4965518;28;20207;-85
2022/12/01 08:45:41;;;;;;;31.87;17.03;;;;;;;;;;4943363;28;20681;-86
2022/12/01 08:48:46;;;;;;;29.13;17.30;;;;;;;;;;4943860;28;20187;-86
2022/12/01 08:51:49;;;;;;;28.43;15.83;;;;;;;;;;4977176;28;20175;-86
2022/12/01 08:54:53;;;;;;;27.37;16.40;;;;;;;;;;4965229;28;20223;-86
2022/12/01 08:57:58;;;;;;;28.33;16.13;;;;;;;;;;4953826;28;20198;-86
2022/12/01 09:01:08;;;;;;;26.77;17.00;;;;;;;;;;4964921;28;20191;-86
2022/12/01 09:04:12;;;;;;;30.03;16.67;;;;;;;;;;4953887;28;20218;-86
2022/12/01 09:07:18;;;;;;;29.10;16.90;;;;;;;;;;4953848;28;20198;-86
2022/12/01 09:10:22;;;;;;;26.27;16.10;;;;;;;;;;4964445;28;20218;-86
2022/12/01 09:13:27;;;;;;;25.23;15.73;;;;;;;;;;4955489;28;20219;-86
2022/12/01 09:16:31;;;;;;;28.13;16.20;;;;;;;;;;4954851;28;20187;-86
2022/12/01 09:19:36;;;;;;;26.23;15.70;;;;;;;;;;4954166;28;20183;-85
2022/12/01 09:22:40;;;;;;;26.77;15.23;;;;;;;;;;4954355;28;20564;-86
2022/12/01 09:25:44;;;;;;;26.80;16.03;;;;;;;;;;4954336;28;20183;-86
2022/12/01 09:28:52;;;;;;;26.87;15.87;;;;;;;;;;4944907;28;20202;-85
2022/12/01 09:31:58;;;;;;;25.77;15.50;;;;;;;;;;4954346;28;20183;-86
2022/12/01 09:35:02;;;;;;;26.70;15.57;;;;;;;;;;4965017;28;20214;-87
2022/12/01 09:38:06;;;;;;;23.83;14.97;;;;;;;;;;4942542;28;20190;-86
2022/12/01 09:41:18;;;;;;;27.50;15.63;;;;;;;;;;4953419;28;20199;-86
2022/12/01 09:44:41;;;;;;;28.97;15.53;;;;;;;;;;4953291;28;20237;-86
2022/12/01 09:47:45;;;;;;;25.07;15.33;;;;;;;;;;4953484;28;20530;-86
2022/12/01 09:50:49;;;;;;;23.07;14.73;;;;;;;;;;4964354;28;20214;-86
2022/12/01 09:53:57;;;;;;;26.70;16.53;;;;;;;;;;4955960;28;20289;-88
2022/12/01 09:57:01;;;;;;;26.47;15.50;;;;;;;;;;4962897;28;20179;-88
2022/12/01 10:00:13;;;;;;;26.37;14.93;;;;;;;;;;4975768;28;20155;-88
2022/12/01 10:03:45;;;;;;;25.37;15.07;;;;;;;;;;4975876;28;20223;-88
2022/12/01 10:07:17;;;;;;;27.10;15.57;;;;;;;;;;4975572;28;20187;-87
2022/12/01 10:11:00;;;;;;;26.93;15.67;;;;;;;;;;4975361;28;20215;-88
2022/12/01 10:14:07;;;;;;;25.77;14.80;;;;;;;;;;4943670;28;20212;-86
2022/12/01 10:17:35;;;;;;;25.60;14.70;;;;;;;;;;4966097;28;20182;-87
2022/12/01 10:21:09;;;;;;;22.63;14.50;;;;;;;;;;4954646;28;20171;-87
2022/12/01 10:24:24;;;;;;;23.93;13.77;;;;;;;;;;4977269;28;20226;-87
2022/12/01 10:27:34;;;;;;;22.23;13.50;;;;;;;;;;4954352;28;20187;-88
2022/12/01 10:30:48;;;;;;;21.20;13.33;;;;;;;;;;4954736;28;20222;-87
2022/12/01 10:34:06;;;;;;;21.57;12.97;;;;;;;;;;4964552;28;20215;-87
2022/12/01 10:37:18;;;;;;;23.60;13.60;;;;;;;;;;4962556;28;20191;-88
2022/12/01 10:40:24;;;;;;;22.30;13.60;;;;;;;;;;4951090;28;20179;-87
2022/12/01 10:43:37;;;;;;;23.20;13.47;;;;;;;;;;4950066;28;20679;-87
2022/12/01 10:46:52;;;;;;;24.20;13.30;;;;;;;;;;4960786;28;20630;-86
2022/12/01 10:49:57;;;;;;;23.77;13.20;;;;;;;;;;4948770;28;20211;-87
2022/12/01 10:53:02;;;;;;;22.10;13.83;;;;;;;;;;4970054;28;20183;-87
2022/12/01 10:56:17;;;;;;;23.10;13.90;;;;;;;;;;4958197;28;20179;-87
2022/12/01 10:59:26;;;;;;;24.23;14.10;;;;;;;;;;4957951;28;20191;-88
2022/12/01 11:02:31;;;;;;;23.20;13.97;;;;;;;;;;4957566;28;20171;-87
2022/12/01 11:05:41;;;;;;;24.10;14.50;;;;;;;;;;4968617;28;20190;-87
2022/12/01 11:08:51;;;;;;;24.20;14.20;;;;;;;;;;4957867;28;20191;-86
2022/12/01 11:12:01;;;;;;;20.77;12.60;;;;;;;;;;4956432;28;20210;-87
2022/12/01 11:15:06;;;;;;;22.57;13.73;;;;;;;;;;4966836;28;20226;-86
2022/12/01 11:18:28;;;;;;;19.17;11.87;;;;;;;;;;4966836;28;20199;-87
2022/12/01 11:21:32;;;;;;;21.90;11.70;;;;;;;;;;4956068;28;20180;-87
2022/12/01 11:24:54;;;;;;;22.70;13.00;;;;;;;;;;4955402;28;20222;-87
2022/12/01 11:28:00;;;;;;;19.73;13.60;;;;;;;;;;4956121;28;20258;-87
2022/12/01 11:31:07;;;;;;;22.70;14.20;;;;;;;;;;4955281;28;20211;-87
2022/12/01 11:34:20;;;;;;;25.13;14.27;;;;;;;;;;4967283;28;20586;-87
2022/12/01 11:37:42;;;;;;;22.00;13.47;;;;;;;;;;4959534;28;20182;-86
2022/12/01 11:40:49;;;;;;;23.13;14.67;;;;;;;;;;4959427;28;20179;-87
2022/12/01 11:43:55;;;;;;;23.67;14.53;;;;;;;;;;4958907;28;20568;-86
2022/12/01 11:47:17;;;;;;;20.73;12.93;;;;;;;;;;4947477;28;20195;-87
2022/12/01 11:50:25;;;;;;;23.23;14.93;;;;;;;;;;4970617;28;20214;-86
2022/12/01 11:53:35;;;;;;;26.07;13.60;;;;;;;;;;4948785;28;20215;-87
2022/12/01 11:56:40;;;;;;;24.97;15.23;;;;;;;;;;4970507;28;20187;-87
2022/12/01 11:59:44;;;;;;;21.97;13.73;;;;;;;;;;4959062;28;20183;-86
2022/12/01 12:02:48;;;;;;;22.17;13.13;;;;;;;;;;4958871;28;20171;-86
2022/12/01 12:06:09;;;;;;;25.70;14.33;;;;;;;;;;4947617;28;20174;-86
2022/12/01 12:09:31;;;;;;;24.20;14.40;;;;;;;;;;4969929;28;20179;-86
2022/12/01 12:12:41;;;;;;;21.90;12.93;;;;;;;;;;4980376;28;20623;-85
2022/12/01 12:16:11;;;;;;;20.93;12.97;;;;;;;;;;4958519;28;20666;-85
2022/12/01 12:19:28;;;;;;;19.30;12.13;;;;;;;;;;4952859;28;20187;-87
2022/12/01 12:22:40;;;;;;;20.37;12.37;;;;;;;;;;4946816;28;20634;-85
2022/12/01 12:26:06;;;;;;;20.43;12.83;;;;;;;;;;4958442;28;20191;-85
2022/12/01 12:29:32;;;;;;;19.87;12.33;;;;;;;;;;4946786;28;20184;-86
2022/12/01 12:32:49;;;;;;;22.17;14.20;;;;;;;;;;4956873;28;20180;-85
2022/12/01 12:36:03;;;;;;;20.43;12.93;;;;;;;;;;4956443;28;20187;-85
2022/12/01 12:39:16;;;;;;;22.63;13.80;;;;;;;;;;4945863;28;20187;-85
2022/12/01 12:42:37;;;;;;;21.13;12.97;;;;;;;;;;4956724;28;20175;-85
2022/12/01 12:45:50;;;;;;;22.43;12.67;;;;;;;;;;4945190;28;20623;-86
2022/12/01 12:49:20;;;;;;;21.87;13.33;;;;;;;;;;4957361;28;20191;-87
2022/12/01 12:52:32;;;;;;;22.30;13.63;;;;;;;;;;4956154;28;20674;-86
2022/12/01 12:55:43;;;;;;;18.60;12.73;;;;;;;;;;4978892;28;20194;-85
2022/12/01 12:59:02;;;;;;;23.03;14.20;;;;;;;;;;4956632;28;20183;-87
2022/12/01 13:02:15;;;;;;;25.60;13.80;;;;;;;;;;4966863;28;20191;-86
2022/12/01 13:05:26;;;;;;;25.50;15.63;;;;;;;;;;4956113;28;20190;-86
2022/12/01 13:08:38;;;;;;;23.93;15.23;;;;;;;;;;4955982;28;20527;-86
2022/12/01 13:11:55;;;;;;;28.03;15.57;;;;;;;;;;4955911;28;20547;-86
2022/12/01 13:15:14;;;;;;;24.10;14.50;;;;;;;;;;4955510;28;20214;-86
2022/12/01 13:18:44;;;;;;;24.23;14.27;;;;;;;;;;4956203;28;20179;-86
2022/12/01 13:21:50;;;;;;;23.47;15.07;;;;;;;;;;4955576;28;20175;-85
2022/12/01 13:24:55;;;;;;;25.30;15.07;;;;;;;;;;4955476;28;20690;-86
2022/12/01 13:28:02;;;;;;;26.20;15.00;;;;;;;;;;4955203;28;20203;-86
2022/12/01 13:31:10;;;;;;;21.87;14.30;;;;;;;;;;4955008;28;20230;-85
2022/12/01 13:34:39;;;;;;;24.07;14.83;;;;;;;;;;4966190;28;20689;-86
2022/12/01 13:37:44;;;;;;;29.80;15.77;;;;;;;;;;4967345;28;20183;-86
2022/12/01 13:40:48;;;;;;;24.30;15.33;;;;;;;;;;4956410;28;20179;-87
2022/12/01 13:44:02;;;;;;;25.00;15.13;;;;;;;;;;4966892;28;20210;-85
2022/12/01 13:47:09;;;;;;;24.10;14.97;;;;;;;;;;4955590;28;20535;-86
2022/12/01 13:50:32;;;;;;;22.87;15.13;;;;;;;;;;4956092;28;20179;-85
2022/12/01 13:53:37;;;;;;;23.70;14.13;;;;;;;;;;4944702;28;20227;-86
2022/12/01 13:56:57;;;;;;;25.97;15.40;;;;;;;;;;4956092;28;20203;-86
2022/12/01 14:00:05;;;;;;;24.30;14.47;;;;;;;;;;4955950;28;20187;-85
2022/12/01 14:03:16;;;;;;;23.13;14.43;;;;;;;;;;4955964;28;20215;-85
2022/12/01 14:06:37;;;;;;;24.77;14.87;;;;;;;;;;4943896;28;20179;-85
2022/12/01 14:09:42;;;;;;;25.27;14.30;;;;;;;;;;4965647;28;20183;-85
2022/12/01 14:12:48;;;;;;;23.17;14.73;;;;;;;;;;4955094;28;20211;-85
2022/12/01 14:15:58;;;;;;;24.57;15.23;;;;;;;;;;4955025;28;20653;-85
2022/12/01 14:19:02;;;;;;;23.57;15.33;;;;;;;;;;4955123;28;20630;-85
2022/12/01 14:22:49;;;;;;;25.27;15.30;;;;;;;;;;4944558;28;20524;-85
2022/12/01 14:26:17;;;;;;;28.90;16.13;;;;;;;;;;4955587;28;20179;-85
2022/12/01 14:29:42;;;;;;;30.50;16.47;;;;;;;;;;4954973;28;20179;-85
2022/12/01 14:32:46;;;;;;;24.57;15.70;;;;;;;;;;4965932;28;20215;-85
2022/12/01 14:35:51;;;;;;;27.97;16.40;;;;;;;;;;4966268;28;20183;-85
2022/12/01 14:38:58;;;;;;;28.00;16.80;;;;;;;;;;4954666;28;20182;-86
2022/12/01 14:44:02;;;;;;;30.50;18.13;;;;;;;;;;4954638;28;20627;-85
2022/12/01 14:45:44;;;;;;;33.80;17.53;;;;;;;;;;4953515;28;20211;-85
2022/12/01 14:48:49;;;;;;;30.70;17.33;;;;;;;;;;4953130;28;20191;-85
2022/12/01 14:51:59;;;;;;;28.57;17.60;;;;;;;;;;4964570;28;20206;-85
2022/12/01 14:55:14;;;;;;;31.03;17.47;;;;;;;;;;4953973;28;20223;-85
2022/12/01 14:58:27;;;;;;;29.10;17.73;;;;;;;;;;4954455;28;20182;-85
2022/12/01 15:01:35;;;;;;;30.27;17.17;;;;;;;;;;4964951;28;20195;-85
2022/12/01 15:05:11;;;;;;;32.07;18.30;;;;;;;;;;4953801;28;20210;-86
2022/12/01 15:08:22;;;;;;;29.23;18.27;;;;;;;;;;4953895;28;20171;-85
2022/12/01 15:11:28;;;;;;;31.77;18.03;;;;;;;;;;4958588;28;20218;-85
2022/12/01 15:14:36;;;;;;;32.83;17.97;;;;;;;;;;4958397;28;20551;-86
2022/12/01 15:17:40;;;;;;;31.47;18.30;;;;;;;;;;4969214;28;20175;-85
2022/12/01 15:20:44;;;;;;;33.47;19.17;;;;;;;;;;4957546;28;20546;-86
2022/12/01 15:23:59;;;;;;;32.77;18.60;;;;;;;;;;4946405;28;20226;-85
2022/12/01 15:27:30;;;;;;;32.93;19.50;;;;;;;;;;4957865;28;20206;-85
2022/12/01 15:30:34;;;;;;;36.47;19.23;;;;;;;;;;4958488;28;20186;-86
2022/12/01 15:33:50;;;;;;;31.20;18.07;;;;;;;;;;4969682;28;20219;-86
2022/12/01 15:36:55;;;;;;;33.97;18.27;;;;;;;;;;4980987;28;20175;-87
2022/12/01 15:40:04;;;;;;;37.23;20.10;;;;;;;;;;4969237;28;20638;-86
2022/12/01 15:43:25;;;;;;;37.07;20.17;;;;;;;;;;4958679;28;20191;-87
2022/12/01 15:46:33;;;;;;;30.70;18.57;;;;;;;;;;4949330;28;20183;-87
2022/12/01 15:49:47;;;;;;;31.90;18.60;;;;;;;;;;4960026;28;20657;-86
2022/12/01 15:52:51;;;;;;;34.30;19.77;;;;;;;;;;4971431;28;20222;-86
2022/12/01 15:55:57;;;;;;;30.70;18.80;;;;;;;;;;4946842;28;20179;-85
2022/12/01 15:59:13;;;;;;;32.33;18.57;;;;;;;;;;4957426;28;20187;-86
2022/12/01 16:02:31;;;;;;;32.70;18.83;;;;;;;;;;4958088;28;20627;-87
2022/12/01 16:05:35;;;;;;;35.53;19.53;;;;;;;;;;4957091;28;20183;-85
2022/12/01 16:08:39;;;;;;;30.80;19.07;;;;;;;;;;4968057;28;20179;-84
2022/12/01 16:12:03;;;;;;;31.40;18.37;;;;;;;;;;4968273;28;20207;-83
2022/12/01 16:15:17;;;;;;;33.17;18.07;;;;;;;;;;4946296;28;20226;-85
2022/12/01 16:18:31;;;;;;;29.07;18.13;;;;;;;;;;4957493;28;20178;-86
2022/12/01 16:21:48;;;;;;;33.23;18.53;;;;;;;;;;4955748;28;20523;-86
2022/12/01 16:24:53;;;;;;;31.93;18.60;;;;;;;;;;4957085;28;20568;-86
2022/12/01 16:27:58;;;;;;;29.07;17.13;;;;;;;;;;4957176;28;20635;-86
2022/12/01 16:31:04;;;;;;;33.13;19.10;;;;;;;;;;4957117;28;20635;-85
2022/12/01 16:34:15;;;;;;;31.47;18.37;;;;;;;;;;4957087;28;20218;-86
2022/12/01 16:37:20;;;;;;;32.50;18.30;;;;;;;;;;4956260;28;20183;-87
2022/12/01 16:40:25;;;;;;;31.33;18.03;;;;;;;;;;4957075;28;20179;-86
2022/12/01 16:43:29;;;;;;;28.20;17.03;;;;;;;;;;4956898;28;20219;-86
2022/12/01 16:46:33;;;;;;;29.03;17.07;;;;;;;;;;4956994;28;20187;-86
2022/12/01 16:49:37;;;;;;;29.77;16.83;;;;;;;;;;4957277;28;20186;-86
2022/12/01 16:52:42;;;;;;;32.97;18.67;;;;;;;;;;4967777;28;20215;-86
2022/12/01 16:55:51;;;;;;;31.17;17.67;;;;;;;;;;4957100;28;20631;-86
2022/12/01 16:58:55;;;;;;;32.30;18.90;;;;;;;;;;4955600;28;20217;-84
2022/12/01 17:02:00;;;;;;;29.47;17.67;;;;;;;;;;4954348;28;20675;-87
2022/12/01 17:05:05;;;;;;;27.80;16.37;;;;;;;;;;4977792;28;20230;-86
2022/12/01 17:08:09;;;;;;;32.03;17.67;;;;;;;;;;4966770;28;20191;-85
2022/12/01 17:11:13;;;;;;;26.23;16.70;;;;;;;;;;4955132;28;20183;-86
2022/12/01 17:14:18;;;;;;;28.97;17.47;;;;;;;;;;4966160;28;20211;-86
2022/12/01 17:17:22;;;;;;;32.00;17.03;;;;;;;;;;4966033;28;20198;-87
2022/12/01 17:20:26;;;;;;;27.70;16.43;;;;;;;;;;4966244;28;20179;-85
2022/12/01 17:23:31;;;;;;;31.50;16.80;;;;;;;;;;4966432;28;20218;-86
2022/12/01 17:26:36;;;;;;;28.33;17.00;;;;;;;;;;4955163;28;20183;-86
2022/12/01 17:29:40;;;;;;;28.07;16.90;;;;;;;;;;4957722;28;20198;-88
2022/12/01 17:32:45;;;;;;;30.70;17.33;;;;;;;;;;4954195;28;20211;-87
2022/12/01 17:35:49;;;;;;;29.17;17.63;;;;;;;;;;4954383;28;20202;-86
2022/12/01 17:38:53;;;;;;;29.20;17.57;;;;;;;;;;4956206;28;20202;-86
2022/12/01 17:41:57;;;;;;;29.97;16.73;;;;;;;;;;4954841;28;20203;-86
2022/12/01 17:45:02;;;;;;;32.70;17.67;;;;;;;;;;4955529;28;20222;-88
2022/12/01 17:48:06;;;;;;;28.67;17.80;;;;;;;;;;4956930;28;20220;-87
2022/12/01 17:51:12;;;;;;;28.17;17.53;;;;;;;;;;4956537;28;20202;-87
2022/12/01 17:54:16;;;;;;;30.40;18.10;;;;;;;;;;4958562;28;20215;-86
2022/12/01 17:57:21;;;;;;;32.83;18.63;;;;;;;;;;4958486;28;20174;-87
2022/12/01 18:00:25;;;;;;;28.30;18.07;;;;;;;;;;4956258;28;20171;-86
2022/12/01 18:03:30;;;;;;;31.63;18.17;;;;;;;;;;4955136;28;20210;-86
2022/12/01 18:06:35;;;;;;;27.20;17.20;;;;;;;;;;4959773;28;20175;-88
2022/12/01 18:09:39;;;;;;;36.13;19.27;;;;;;;;;;4982492;28;20202;-86
2022/12/01 18:12:43;;;;;;;32.03;18.87;;;;;;;;;;4966026;28;20234;-85
2022/12/01 18:15:47;;;;;;;30.17;18.10;;;;;;;;;;4976163;28;20203;-85
2022/12/01 18:18:53;;;;;;;31.90;18.67;;;;;;;;;;4954256;28;20183;-86
2022/12/01 18:21:57;;;;;;;29.63;18.00;;;;;;;;;;4954044;28;20179;-86
2022/12/01 18:25:02;;;;;;;33.87;18.90;;;;;;;;;;5037595;22;20231;-90